Time;durP1;ratioP1;P1;durP2;ratioP2;P2;SDS_P1;SDS_P2;PMS_P1;PMS_P2;Temp;Humidity;BMP_temperature;BMP_pressure;BME280_temperature;BME280_humidity;BME280_pressure;Samples;Min_cycle;Max_cycle;Signal;HPM_P1;HPM_P2
2022/05/29 00:00:17;;;;;;;9.73;2.17;;;17.00;60.60;;;;;;5070908;28;20027;-61
2022/05/29 00:02:42;;;;;;;3.88;1.40;;;17.00;60.70;;;;;;5071116;28;20396;-61
2022/05/29 00:05:10;;;;;;;2.55;1.48;;;16.90;60.60;;;;;;5088773;28;20020;-61
2022/05/29 00:07:36;;;;;;;4.65;1.75;;;16.90;60.70;;;;;;5089308;28;20470;-61
2022/05/29 00:10:05;;;;;;;4.13;1.58;;;16.90;60.60;;;;;;5087830;28;20531;-61
2022/05/29 00:12:31;;;;;;;3.72;1.70;;;17.00;60.80;;;;;;5089240;28;20305;-61
2022/05/29 00:14:57;;;;;;;2.28;1.55;;;16.90;60.80;;;;;;5089365;28;20516;-61
2022/05/29 00:17:22;;;;;;;3.67;1.67;;;16.90;60.80;;;;;;5088869;28;20123;-62
2022/05/29 00:19:48;;;;;;;4.18;1.60;;;16.90;60.80;;;;;;5070321;28;20115;-62
2022/05/29 00:22:19;;;;;;;7.38;1.73;;;16.90;60.80;;;;;;5089655;28;20096;-61
2022/05/29 00:24:47;;;;;;;4.22;1.40;;;16.90;60.90;;;;;;5088194;28;20028;-61
2022/05/29 00:27:16;;;;;;;5.47;1.67;;;16.90;60.90;;;;;;5089419;28;20024;-61
2022/05/29 00:29:43;;;;;;;6.63;1.52;;;16.90;60.90;;;;;;5089047;28;20031;-62
2022/05/29 00:32:09;;;;;;;4.32;1.80;;;16.90;61.00;;;;;;5088652;28;20093;-62
2022/05/29 00:34:35;;;;;;;5.47;1.63;;;16.90;61.00;;;;;;5089249;28;20024;-61
2022/05/29 00:37:04;;;;;;;4.07;1.88;;;16.90;61.10;;;;;;5070817;28;20039;-62
2022/05/29 00:39:29;;;;;;;3.50;1.50;;;16.90;61.10;;;;;;5087845;28;20595;-61
2022/05/29 00:41:55;;;;;;;5.57;1.60;;;16.90;61.80;;;;;;5087520;28;20084;-61
2022/05/29 00:44:24;;;;;;;5.28;1.77;;;16.90;61.20;;;;;;5088651;28;20469;-61
2022/05/29 00:47:09;;;;;;;2.22;1.70;;;16.90;61.20;;;;;;5089010;28;20028;-61
2022/05/29 00:49:37;;;;;;;3.00;1.40;;;16.80;61.20;;;;;;5070507;28;20032;-61
2022/05/29 00:52:22;;;;;;;4.57;1.38;;;16.90;61.30;;;;;;5088750;28;20024;-64
2022/05/29 00:55:13;;;;;;;2.13;1.52;;;16.80;61.20;;;;;;5069811;28;20427;-61
2022/05/29 00:57:52;;;;;;;1.67;1.25;;;16.90;61.50;;;;;;5088775;28;20047;-61
2022/05/29 01:00:23;;;;;;;3.47;1.60;;;16.80;61.30;;;;;;5089104;28;20107;-61
2022/05/29 01:02:49;;;;;;;4.07;1.52;;;16.80;61.40;;;;;;5070195;28;20086;-62
2022/05/29 01:05:17;;;;;;;3.20;1.48;;;16.80;61.40;;;;;;5089597;28;20461;-61
2022/05/29 01:07:47;;;;;;;4.05;1.58;;;16.80;61.40;;;;;;5092250;28;20032;-61
2022/05/29 01:16:49;;;;;;;7.35;2.00;;;16.80;61.50;;;;;;5073095;28;20041;-70
2022/05/29 02:03:59;;;;;;;5.43;1.50;;;16.70;62.10;;;;;;5006064;28;20603;-70
2022/05/29 07:44:57;;;;;;;3.03;1.25;;;17.30;61.10;;;;;;5117362;22;20094;-62
2022/05/29 07:47:27;;;;;;;5.88;1.33;;;17.30;61.10;;;;;;5102479;28;20502;-62
2022/05/29 07:49:53;;;;;;;3.72;1.08;;;17.30;61.10;;;;;;5109338;28;20015;-61
2022/05/29 07:52:20;;;;;;;2.80;1.20;;;17.30;61.20;;;;;;5109659;28;20032;-62
2022/05/29 07:54:45;;;;;;;2.10;1.17;;;17.30;61.10;;;;;;5096267;28;20038;-61
2022/05/29 07:57:11;;;;;;;1.95;1.08;;;17.30;61.20;;;;;;5110109;28;20031;-62
2022/05/29 07:59:43;;;;;;;6.55;1.45;;;17.30;61.10;;;;;;5110002;28;20468;-62
2022/05/29 08:02:08;;;;;;;2.50;1.05;;;17.30;61.20;;;;;;5110996;28;20489;-62
2022/05/29 08:04:35;;;;;;;1.90;1.15;;;17.30;61.20;;;;;;5109955;28;20024;-61
2022/05/29 08:07:00;;;;;;;1.25;0.90;;;17.30;61.30;;;;;;5109266;28;20080;-63
2022/05/29 08:09:26;;;;;;;4.88;1.40;;;17.30;61.30;;;;;;5109038;28;20024;-62
2022/05/29 08:11:52;;;;;;;4.18;1.13;;;17.30;61.30;;;;;;5110056;28;20357;-61
2022/05/29 08:14:17;;;;;;;4.07;1.27;;;17.30;61.20;;;;;;5109796;28;20020;-61
2022/05/29 08:16:43;;;;;;;5.38;1.45;;;17.40;61.30;;;;;;5112925;28;20038;-62
2022/05/29 08:19:09;;;;;;;5.95;1.88;;;17.40;61.30;;;;;;5097593;28;20457;-62
2022/05/29 08:21:34;;;;;;;4.00;1.38;;;17.30;61.30;;;;;;5113779;28;20028;-62
2022/05/29 08:32:13;;;;;;;13.05;1.45;;;17.40;61.40;;;;;;5112561;28;20121;-62
2022/05/29 08:34:38;;;;;;;4.65;1.25;;;17.30;61.40;;;;;;5113882;28;20492;-62
2022/05/29 08:37:04;;;;;;;4.03;1.35;;;17.40;62.30;;;;;;5113388;28;20032;-61
2022/05/29 08:39:30;;;;;;;2.58;1.20;;;17.40;61.40;;;;;;5112377;28;20023;-62
2022/05/29 08:41:58;;;;;;;4.03;1.10;;;17.40;61.40;;;;;;5113920;28;20483;-62
2022/05/29 08:44:48;;;;;;;2.33;1.10;;;17.40;61.40;;;;;;5112921;28;20081;-62
2022/05/29 08:47:25;;;;;;;3.05;0.93;;;17.40;61.30;;;;;;5118866;27;20023;-61
2022/05/29 08:49:50;;;;;;;1.15;1.00;;;17.40;61.20;;;;;;5112459;28;20116;-62
2022/05/29 08:52:25;;;;;;;3.03;1.27;;;17.40;61.20;;;;;;5113148;28;20525;-62
2022/05/29 08:54:57;;;;;;;5.00;1.42;;;17.40;61.10;;;;;;5112970;28;20081;-62
2022/05/29 08:57:50;;;;;;;1.08;0.98;;;17.40;61.00;;;;;;5113035;28;20042;-61
2022/05/29 09:00:23;;;;;;;4.20;1.23;;;17.40;61.20;;;;;;5112049;28;20030;-62
2022/05/29 09:03:11;;;;;;;7.93;1.25;;;17.40;61.20;;;;;;5112106;28;20388;-61
2022/05/29 09:05:47;;;;;;;3.67;1.38;;;17.40;61.20;;;;;;5112793;28;20027;-62
2022/05/29 09:08:24;;;;;;;8.82;1.65;;;17.40;61.30;;;;;;5112020;28;20115;-61
2022/05/29 09:10:57;;;;;;;5.03;1.48;;;17.40;61.40;;;;;;5091875;28;20524;-62
2022/05/29 09:13:37;;;;;;;2.75;1.58;;;17.40;61.50;;;;;;5092300;28;20024;-61
2022/05/29 09:16:10;;;;;;;4.35;1.10;;;17.40;61.60;;;;;;5092094;28;20027;-62
2022/05/29 09:18:40;;;;;;;5.80;1.40;;;17.40;61.40;;;;;;5103832;28;20042;-61
2022/05/29 09:21:15;;;;;;;7.80;1.40;;;17.40;61.30;;;;;;5111986;28;20020;-62
2022/05/29 09:23:57;;;;;;;2.53;1.30;;;17.40;61.40;;;;;;5112634;28;20020;-61
2022/05/29 09:26:23;;;;;;;2.60;1.33;;;17.40;61.20;;;;;;5112078;28;20024;-61
2022/05/29 09:28:49;;;;;;;4.80;1.20;;;17.40;62.00;;;;;;5111737;28;20093;-61
2022/05/29 09:31:19;;;;;;;2.25;0.90;;;17.40;61.30;;;;;;5111522;28;20028;-62
2022/05/29 09:33:45;;;;;;;;;;;17.40;61.20;;;;;;5092671;28;20412;-62
2022/05/29 09:36:17;;;;;;;5.05;1.17;;;17.40;61.30;;;;;;5092144;28;19908;-61
2022/05/29 09:39:11;;;;;;;3.00;1.13;;;17.40;61.00;;;;;;5091409;28;20050;-61
2022/05/29 09:41:47;;;;;;;7.40;1.13;;;17.40;61.00;;;;;;5104046;28;20050;-62
2022/05/29 09:44:22;;;;;;;2.25;1.10;;;17.40;60.90;;;;;;5111452;28;20031;-62
2022/05/29 09:46:52;;;;;;;3.65;1.63;;;17.40;60.80;;;;;;5111137;28;20377;-61
2022/05/29 09:49:42;;;;;;;6.93;1.00;;;17.40;60.80;;;;;;5111506;28;20028;-62
2022/05/29 09:52:30;;;;;;;5.68;1.50;;;17.40;60.50;;;;;;5111861;28;20024;-61
2022/05/29 09:55:14;;;;;;;2.50;1.02;;;17.30;58.70;;;;;;5112031;28;20020;-62
2022/05/29 09:57:51;;;;;;;3.75;1.30;;;17.30;57.50;;;;;;5112126;28;20088;-61
2022/05/29 10:00:31;;;;;;;4.47;1.10;;;17.30;57.10;;;;;;5111469;28;20472;-61
2022/05/29 10:02:57;;;;;;;2.30;0.98;;;17.20;57.10;;;;;;5110347;28;20051;-62
2022/05/29 10:05:35;;;;;;;1.13;0.90;;;17.20;56.70;;;;;;5111561;28;20237;-62
2022/05/29 10:08:19;;;;;;;1.98;1.10;;;17.20;56.50;;;;;;5111717;28;20028;-61
2022/05/29 10:10:45;;;;;;;2.25;1.13;;;17.10;56.70;;;;;;5111670;28;20024;-62
2022/05/29 10:13:37;;;;;;;2.90;1.30;;;17.10;56.00;;;;;;5093012;28;20035;-61
2022/05/29 10:16:03;;;;;;;1.63;1.20;;;17.10;56.10;;;;;;5111543;28;20061;-62
2022/05/29 10:18:28;;;;;;;2.35;1.10;;;17.10;55.90;;;;;;5099788;28;20137;-62
2022/05/29 10:21:25;;;;;;;1.77;1.10;;;17.10;55.40;;;;;;5090959;28;20435;-62
2022/05/29 10:23:54;;;;;;;3.83;1.30;;;17.10;55.60;;;;;;5090086;28;20039;-61
2022/05/29 10:26:23;;;;;;;4.25;1.25;;;17.10;55.40;;;;;;5090813;28;20298;-61
2022/05/29 10:28:49;;;;;;;3.03;1.15;;;17.10;55.30;;;;;;5090674;28;20169;-61
2022/05/29 10:31:25;;;;;;;3.55;1.13;;;17.00;55.20;;;;;;5091123;28;20051;-61
2022/05/29 10:34:10;;;;;;;1.95;0.98;;;17.10;55.50;;;;;;5108655;28;20057;-61
2022/05/29 10:36:39;;;;;;;2.67;1.30;;;17.10;55.30;;;;;;5110631;28;20053;-61
2022/05/29 10:39:19;;;;;;;2.75;1.00;;;17.00;55.40;;;;;;5111045;28;20069;-61
2022/05/29 10:41:45;;;;;;;1.63;0.95;;;17.00;55.30;;;;;;5111711;28;20023;-61
2022/05/29 10:44:38;;;;;;;1.83;0.70;;;16.90;55.40;;;;;;5110688;28;20043;-61
2022/05/29 10:47:13;;;;;;;1.08;0.88;;;17.00;55.40;;;;;;5111192;27;20034;-60
2022/05/29 10:49:47;;;;;;;2.03;1.15;;;17.00;55.60;;;;;;5090735;28;20024;-61
2022/05/29 10:52:44;;;;;;;1.92;1.17;;;16.90;55.60;;;;;;5090777;28;20043;-60
2022/05/29 10:55:24;;;;;;;0.70;0.70;;;16.90;55.40;;;;;;5090437;28;20489;-61
2022/05/29 10:58:06;;;;;;;1.30;0.95;;;16.80;54.90;;;;;;5090096;28;20370;-61
2022/05/29 11:01:02;;;;;;;2.63;1.30;;;16.80;54.60;;;;;;5090952;28;20095;-61
2022/05/29 11:03:43;;;;;;;3.53;1.10;;;16.80;54.70;;;;;;5084220;28;20476;-61
2022/05/29 11:06:48;;;;;;;5.45;1.27;;;16.80;54.60;;;;;;5110743;28;20035;-61
2022/05/29 11:09:32;;;;;;;2.83;1.10;;;16.80;54.20;;;;;;5110453;28;20034;-61
2022/05/29 11:12:17;;;;;;;4.18;1.33;;;16.80;54.20;;;;;;5110745;28;20026;-62
2022/05/29 11:14:53;;;;;;;4.05;1.00;;;16.80;54.20;;;;;;5110948;28;20107;-61
2022/05/29 11:17:30;;;;;;;6.18;1.15;;;16.80;54.50;;;;;;5109334;28;20035;-62
2022/05/29 11:20:21;;;;;;;4.88;2.17;;;16.80;55.20;;;;;;5108998;28;20476;-61
2022/05/29 11:23:05;;;;;;;;;;;16.80;56.90;;;;;;5111000;28;20028;-60
2022/05/29 11:25:40;;;;;;;5.13;1.33;;;16.80;58.60;;;;;;5110362;28;19903;-61
2022/05/29 11:28:22;;;;;;;3.88;1.38;;;16.70;60.50;;;;;;5109348;28;20023;-61
2022/05/29 11:31:06;;;;;;;5.57;2.03;;;16.70;61.80;;;;;;5122974;27;20019;-61
2022/05/29 11:33:59;;;;;;;5.57;1.10;;;16.70;62.50;;;;;;5117871;27;20032;-61
2022/05/29 11:36:44;;;;;;;5.13;1.42;;;16.70;63.90;;;;;;5110292;28;20030;-61
2022/05/29 11:39:21;;;;;;;8.27;1.30;;;16.80;64.10;;;;;;5094179;28;20118;-61
2022/05/29 11:41:55;;;;;;;5.30;1.42;;;16.70;65.20;;;;;;5106868;28;20080;-61
2022/05/29 11:44:46;;;;;;;2.25;1.10;;;16.70;65.30;;;;;;5110044;28;20079;-61
2022/05/29 11:53:26;;;;;;;2.92;1.35;;;16.70;66.20;;;;;;5090995;28;20073;-62
2022/05/29 11:55:55;;;;;;;3.50;1.25;;;16.70;65.80;;;;;;5072764;28;20028;-61
2022/05/29 11:58:30;;;;;;;2.38;1.10;;;16.60;66.00;;;;;;5088668;28;20067;-61
2022/05/29 12:01:04;;;;;;;3.28;0.95;;;16.60;66.60;;;;;;5090060;28;20113;-62
2022/05/29 12:03:49;;;;;;;1.08;1.00;;;16.60;67.50;;;;;;5098274;28;20366;-61
2022/05/29 12:06:20;;;;;;;2.25;1.02;;;16.60;68.00;;;;;;5110645;28;20504;-61
2022/05/29 12:09:25;;;;;;;5.03;1.23;;;16.60;67.70;;;;;;5110485;28;20015;-62
2022/05/29 12:12:14;;;;;;;3.45;1.00;;;16.50;67.60;;;;;;5092290;28;20023;-61
2022/05/29 12:14:47;;;;;;;1.15;0.80;;;16.50;67.20;;;;;;5110402;28;20023;-61
2022/05/29 12:17:29;;;;;;;6.65;1.02;;;16.50;66.50;;;;;;5109890;28;20032;-62
2022/05/29 12:20:10;;;;;;;3.97;1.15;;;16.50;66.70;;;;;;5108373;28;20020;-61
2022/05/29 12:22:47;;;;;;;1.02;0.80;;;16.50;66.90;;;;;;5109676;28;20038;-61
2022/05/29 12:25:23;;;;;;;0.75;0.75;;;16.40;67.90;;;;;;5110428;28;20099;-61
2022/05/29 12:27:50;;;;;;;1.50;0.88;;;16.40;67.70;;;;;;5109383;28;20362;-61
2022/05/29 12:30:27;;;;;;;2.58;0.73;;;16.40;68.20;;;;;;5109176;28;20103;-61
2022/05/29 12:32:53;;;;;;;1.77;0.80;;;16.40;68.00;;;;;;5108705;28;20343;-62
2022/05/29 12:35:35;;;;;;;1.80;0.80;;;16.30;67.60;;;;;;5087887;28;20427;-60
2022/05/29 12:38:04;;;;;;;2.58;0.98;;;16.30;67.40;;;;;;5089990;28;20278;-61
2022/05/29 12:41:06;;;;;;;1.45;0.85;;;16.30;67.70;;;;;;5089932;28;20366;-61
2022/05/29 12:43:41;;;;;;;2.88;0.75;;;16.30;68.00;;;;;;5073103;28;20055;-61
2022/05/29 12:46:31;;;;;;;3.20;0.90;;;16.40;68.20;;;;;;5092117;28;20028;-61
2022/05/29 12:49:28;;;;;;;1.67;1.10;;;16.40;68.40;;;;;;5089777;28;20061;-61
2022/05/29 12:52:12;;;;;;;2.20;1.10;;;16.30;68.30;;;;;;5090764;28;20101;-61
2022/05/29 12:58:41;;;;;;;3.13;1.38;;;16.30;68.70;;;;;;5011249;28;20041;-61
2022/05/29 13:01:21;;;;;;;3.42;1.30;;;16.30;69.10;;;;;;5007254;28;20034;-61
2022/05/29 13:04:11;;;;;;;3.78;1.40;;;16.30;69.20;;;;;;5009684;28;20034;-61
2022/05/29 13:07:06;;;;;;;4.85;1.50;;;16.30;68.70;;;;;;5009947;28;20029;-61
2022/05/29 13:09:52;;;;;;;2.08;1.15;;;16.30;68.60;;;;;;4973324;28;20411;-61
2022/05/29 13:12:24;;;;;;;2.08;0.95;;;16.30;67.60;;;;;;4990325;28;20019;-62
2022/05/29 13:21:15;;;;;;;1.52;1.02;;;16.30;66.40;;;;;;4970080;28;20409;-62
2022/05/29 13:23:51;;;;;;;1.67;1.13;;;16.30;65.50;;;;;;4967733;28;20031;-60
2022/05/29 13:26:18;;;;;;;4.85;1.17;;;16.30;65.00;;;;;;4950833;28;20065;-61
2022/05/29 13:28:44;;;;;;;3.80;1.30;;;16.30;64.70;;;;;;4950914;29;20039;-65
2022/05/29 13:31:13;;;;;;;5.55;1.30;;;16.40;65.20;;;;;;4950468;28;20028;-62
2022/05/29 13:33:49;;;;;;;1.48;0.98;;;16.40;64.90;;;;;;4954236;28;20058;-62
2022/05/29 13:36:40;;;;;;;2.47;0.73;;;16.40;64.10;;;;;;5049237;28;20025;-62
2022/05/29 13:39:33;;;;;;;1.10;1.00;;;16.40;62.40;;;;;;5048593;28;20049;-62
2022/05/29 13:42:10;;;;;;;1.58;0.88;;;16.40;62.20;;;;;;5048586;28;20055;-61
2022/05/29 13:44:42;;;;;;;2.03;0.88;;;16.40;62.70;;;;;;5048795;28;20036;-61
2022/05/29 13:47:24;;;;;;;4.53;1.73;;;16.30;62.40;;;;;;5049087;28;20068;-62
2022/05/29 13:50:14;;;;;;;1.30;1.20;;;16.30;62.10;;;;;;5081711;28;20047;-63
2022/05/29 13:52:54;;;;;;;2.35;1.00;;;16.30;62.10;;;;;;5091391;28;20020;-62
2022/05/29 13:55:34;;;;;;;4.05;1.00;;;16.30;62.00;;;;;;5088158;28;20590;-65
2022/05/29 14:03:59;;;;;;;1.42;0.70;;;16.40;62.50;;;;;;5089798;28;20070;-63
2022/05/29 14:06:37;;;;;;;2.45;0.88;;;16.30;62.50;;;;;;5092155;28;20028;-63
2022/05/29 14:09:12;;;;;;;1.65;0.70;;;16.40;62.70;;;;;;5091516;28;20035;-63
2022/05/29 14:12:03;;;;;;;0.65;0.65;;;16.40;62.50;;;;;;5092057;28;20490;-63
2022/05/29 14:14:37;;;;;;;1.30;0.90;;;16.40;61.50;;;;;;5075060;28;20036;-62
2022/05/29 14:17:27;;;;;;;2.92;0.57;;;16.40;61.10;;;;;;5074342;28;20181;-63
2022/05/29 14:20:41;;;;;;;1.88;0.93;;;16.40;60.90;;;;;;5080228;28;20082;-62
2022/05/29 14:23:26;;;;;;;1.88;0.70;;;16.40;61.00;;;;;;5082961;28;20032;-63
2022/05/29 14:26:22;;;;;;;0.68;0.68;;;16.40;61.00;;;;;;5092402;28;20024;-62
2022/05/29 14:29:29;;;;;;;1.40;0.75;;;16.40;59.90;;;;;;5093249;28;20017;-62
2022/05/29 14:32:08;;;;;;;1.00;0.80;;;16.40;59.40;;;;;;5033450;28;20048;-62
2022/05/29 14:35:05;;;;;;;1.75;0.70;;;16.30;59.20;;;;;;5046453;28;20036;-62
2022/05/29 14:38:03;;;;;;;2.50;0.70;;;16.30;59.50;;;;;;5024805;28;20041;-63
2022/05/29 14:40:54;;;;;;;2.65;1.00;;;16.30;59.40;;;;;;5028858;28;20017;-62
2022/05/29 14:43:27;;;;;;;1.13;0.80;;;16.30;59.60;;;;;;5022072;28;20040;-63
2022/05/29 14:49:05;;;;;;;3.78;0.70;;;16.30;59.40;;;;;;5065238;28;20051;-62
2022/05/29 14:51:56;;;;;;;0.52;0.52;;;16.30;59.10;;;;;;5087133;28;20043;-61
2022/05/29 14:54:35;;;;;;;1.00;0.98;;;16.30;59.00;;;;;;5069642;28;20032;-62
2022/05/29 14:57:07;;;;;;;0.63;0.60;;;16.40;59.10;;;;;;5069791;28;20049;-62
2022/05/29 14:59:35;;;;;;;0.80;0.52;;;16.40;58.60;;;;;;5068644;28;20085;-63
2022/05/29 15:02:27;;;;;;;1.85;0.80;;;16.40;58.30;;;;;;5089408;27;20027;-62
2022/05/29 15:05:00;;;;;;;1.20;1.10;;;16.30;58.30;;;;;;5125381;27;20031;-63
2022/05/29 15:10:35;;;;;;;1.13;0.73;;;16.30;58.70;;;;;;5112415;28;20105;-62
2022/05/29 15:13:22;;;;;;;2.08;0.70;;;16.30;58.30;;;;;;5112472;28;20024;-62
2022/05/29 15:15:52;;;;;;;0.95;0.55;;;16.30;58.40;;;;;;5094317;28;20031;-62
2022/05/29 15:18:25;;;;;;;2.92;0.98;;;16.30;58.70;;;;;;5093039;28;20032;-62
2022/05/29 15:27:03;;;;;;;2.80;0.68;;;16.20;58.80;;;;;;5027761;28;20064;-64
2022/05/29 15:29:33;;;;;;;4.45;0.80;;;16.20;58.70;;;;;;5028239;28;20044;-63
2022/05/29 15:32:07;;;;;;;1.20;0.75;;;16.20;58.90;;;;;;5028398;28;20036;-63
2022/05/29 15:35:05;;;;;;;1.67;0.70;;;16.20;58.70;;;;;;5027501;28;20084;-62
2022/05/29 15:37:47;;;;;;;0.80;0.80;;;16.20;58.70;;;;;;4987955;28;20065;-63
2022/05/29 15:40:25;;;;;;;10.95;4.72;;;16.20;58.80;;;;;;5028666;28;20525;-63
2022/05/29 15:43:09;;;;;;;5.50;1.95;;;16.20;58.50;;;;;;5027679;28;20034;-63
2022/05/29 15:46:16;;;;;;;2.47;1.40;;;16.20;58.40;;;;;;5025830;28;20033;-63
2022/05/29 15:49:08;;;;;;;1.35;1.23;;;16.20;58.20;;;;;;5037164;28;20020;-63
2022/05/29 15:51:48;;;;;;;1.45;0.90;;;16.20;58.10;;;;;;4967290;28;20054;-63
2022/05/29 15:54:35;;;;;;;2.97;0.80;;;16.20;57.90;;;;;;4965786;28;20030;-62
2022/05/29 15:57:20;;;;;;;1.70;0.73;;;16.30;57.80;;;;;;4965603;28;20043;-64
2022/05/29 16:00:08;;;;;;;1.42;0.80;;;16.20;57.70;;;;;;4949272;28;20071;-63
2022/05/29 16:02:52;;;;;;;2.45;0.70;;;16.20;57.20;;;;;;4976087;28;20060;-62
2022/05/29 16:05:33;;;;;;;1.02;0.90;;;16.20;57.40;;;;;;5037183;28;20061;-62
2022/05/29 16:08:25;;;;;;;1.55;0.80;;;16.20;58.00;;;;;;5045736;28;20532;-62
2022/05/29 16:10:55;;;;;;;40.20;11.70;;;16.20;57.50;;;;;;5046216;28;20449;-63
2022/05/29 16:13:44;;;;;;;7.88;2.40;;;16.20;57.60;;;;;;5046147;28;20548;-63
2022/05/29 16:16:21;;;;;;;2.97;0.90;;;16.20;57.70;;;;;;5046240;28;20466;-63
2022/05/29 16:19:02;;;;;;;0.98;0.85;;;16.20;57.80;;;;;;5046129;28;20033;-62
2022/05/29 16:21:46;;;;;;;1.60;1.08;;;16.20;58.10;;;;;;5045207;28;20530;-62
2022/05/29 16:24:29;;;;;;;1.35;0.90;;;16.20;58.10;;;;;;5045274;28;20067;-63
2022/05/29 16:27:18;;;;;;;1.20;0.70;;;16.20;58.10;;;;;;5046787;28;20029;-63
2022/05/29 16:30:04;;;;;;;0.80;0.70;;;16.20;58.00;;;;;;5104012;28;20084;-63
2022/05/29 16:32:45;;;;;;;3.38;1.17;;;16.20;58.60;;;;;;5109112;28;20077;-63
2022/05/29 16:35:26;;;;;;;11.05;4.30;;;16.20;58.70;;;;;;5107578;28;20024;-63
2022/05/29 16:49:43;;;;;;;0.95;0.80;;;16.20;58.10;;;;;;5133788;27;20434;-62
2022/05/29 16:52:22;;;;;;;3.35;0.82;;;16.10;57.80;;;;;;5114381;27;20073;-63
2022/05/29 16:54:59;;;;;;;3.92;0.65;;;16.10;57.60;;;;;;5113423;28;20102;-65
2022/05/29 16:57:31;;;;;;;1.50;0.95;;;16.10;57.20;;;;;;5112771;28;20040;-62
2022/05/29 17:00:12;;;;;;;0.95;0.80;;;16.10;57.40;;;;;;5112384;28;20326;-64
2022/05/29 17:03:01;;;;;;;7.70;1.05;;;16.10;57.50;;;;;;5113393;28;20024;-62
2022/05/29 17:05:32;;;;;;;4.25;0.50;;;16.10;57.60;;;;;;5111798;28;20071;-62
2022/05/29 17:08:00;;;;;;;1.38;0.77;;;16.10;57.50;;;;;;5112206;28;20103;-63
2022/05/29 17:10:48;;;;;;;0.65;0.57;;;16.10;57.60;;;;;;5112996;28;20102;-63
2022/05/29 17:13:14;;;;;;;0.88;0.80;;;16.10;57.40;;;;;;5070313;28;20032;-62
2022/05/29 17:15:39;;;;;;;1.17;0.70;;;16.10;57.40;;;;;;5112327;28;20032;-62
2022/05/29 17:18:06;;;;;;;0.75;0.68;;;16.10;57.40;;;;;;5112494;28;20030;-62
2022/05/29 17:20:38;;;;;;;2.75;1.10;;;16.00;57.30;;;;;;5111118;28;20046;-62
2022/05/29 17:23:31;;;;;;;1.65;0.73;;;16.00;57.50;;;;;;5112387;28;20503;-63
2022/05/29 17:26:18;;;;;;;0.90;0.80;;;16.10;57.50;;;;;;5112642;28;20034;-63
2022/05/29 17:28:50;;;;;;;1.13;0.80;;;16.00;57.20;;;;;;5093105;28;20019;-62
2022/05/29 17:31:27;;;;;;;4.00;0.80;;;16.00;57.10;;;;;;5112244;28;20074;-62
2022/05/29 17:34:01;;;;;;;2.80;0.95;;;16.00;57.00;;;;;;5112526;28;20027;-63
2022/05/29 17:36:53;;;;;;;1.90;0.90;;;16.00;57.20;;;;;;5111739;28;20477;-63
2022/05/29 17:39:24;;;;;;;0.70;0.70;;;16.00;57.20;;;;;;5111647;28;20032;-64
2022/05/29 17:41:50;;;;;;;2.70;0.70;;;16.00;57.20;;;;;;5112471;28;20019;-63
2022/05/29 17:44:16;;;;;;;2.38;1.10;;;16.00;57.20;;;;;;5111924;28;20015;-63
2022/05/29 17:46:44;;;;;;;1.73;0.98;;;16.00;57.30;;;;;;5111640;28;20062;-62
2022/05/29 17:49:27;;;;;;;1.23;0.90;;;16.00;57.10;;;;;;5111480;28;20404;-63
2022/05/29 17:51:57;;;;;;;1.55;0.90;;;16.00;57.10;;;;;;5110643;28;20082;-62
2022/05/29 17:54:42;;;;;;;1.53;1.00;;;16.00;57.10;;;;;;5112723;28;20455;-63
2022/05/29 17:57:13;;;;;;;4.47;1.00;;;16.00;57.10;;;;;;5113258;28;20027;-66
2022/05/29 17:59:39;;;;;;;3.10;1.20;;;16.00;57.00;;;;;;5112670;28;20127;-66
2022/05/29 18:02:07;;;;;;;3.05;0.93;;;16.00;57.00;;;;;;5112797;28;20016;-66
2022/05/29 18:04:39;;;;;;;2.97;1.13;;;16.00;56.90;;;;;;5112553;28;20019;-66
2022/05/29 18:07:09;;;;;;;1.23;0.90;;;16.00;56.80;;;;;;5112187;28;20070;-64
2022/05/29 18:09:34;;;;;;;1.13;0.80;;;16.00;56.70;;;;;;5111078;28;20027;-63
2022/05/29 18:12:01;;;;;;;2.58;1.23;;;16.00;56.80;;;;;;5112368;28;20357;-63
2022/05/29 18:14:26;;;;;;;7.28;1.23;;;16.00;56.50;;;;;;5111438;28;20023;-64
2022/05/29 18:16:53;;;;;;;3.67;1.50;;;16.00;56.50;;;;;;5105003;28;20015;-63
2022/05/29 18:19:20;;;;;;;2.67;0.90;;;15.90;56.50;;;;;;5106947;28;20035;-63
2022/05/29 18:21:46;;;;;;;5.80;1.30;;;16.00;56.60;;;;;;5101752;28;20060;-63
2022/05/29 18:24:11;;;;;;;5.60;1.60;;;16.00;56.60;;;;;;5092118;28;20493;-63
2022/05/29 18:26:37;;;;;;;3.20;1.38;;;16.10;56.70;;;;;;5091676;28;20024;-63
2022/05/29 18:29:03;;;;;;;6.20;1.35;;;16.10;57.50;;;;;;5104742;28;20027;-63
2022/05/29 18:31:30;;;;;;;6.10;1.35;;;16.20;57.10;;;;;;5104875;28;20028;-63
2022/05/29 18:33:56;;;;;;;5.15;1.40;;;16.20;57.10;;;;;;5107135;28;20024;-63
2022/05/29 18:36:23;;;;;;;2.42;1.17;;;16.20;57.10;;;;;;5106790;28;20036;-63
2022/05/29 18:38:49;;;;;;;5.40;1.35;;;16.20;57.30;;;;;;5099505;28;20044;-63
2022/05/29 18:41:15;;;;;;;1.30;1.10;;;16.20;57.40;;;;;;5091570;28;20024;-63
2022/05/29 18:43:41;;;;;;;8.95;1.83;;;16.20;57.50;;;;;;5102159;28;20039;-63
2022/05/29 18:46:08;;;;;;;2.78;1.25;;;16.20;57.50;;;;;;5105665;28;20071;-63
2022/05/29 18:48:34;;;;;;;0.80;0.80;;;16.20;57.70;;;;;;5105471;28;20034;-64
2022/05/29 19:49:51;;;;;;;4.95;2.13;;;16.20;60.00;;;;;;5112464;28;20397;-73
2022/05/29 22:07:10;;;;;;;6.40;2.17;;;16.10;64.40;;;;;;4956389;28;20033;-72
2022/05/29 22:27:29;;;;;;;3.53;1.75;;;16.10;64.90;;;;;;4941175;28;20078;-73
